Time;durP1;ratioP1;P1;durP2;ratioP2;P2;SDS_P1;SDS_P2;PMS_P1;PMS_P2;Temp;Humidity;BMP_temperature;BMP_pressure;BME280_temperature;BME280_humidity;BME280_pressure;Samples;Min_cycle;Max_cycle;Signal;HPM_P1;HPM_P2
2023/10/30 00:00:08;;;;;;;11.10;0.90;;;;;;;;;;4987253;28;20049;-70
2023/10/30 00:02:36;;;;;;;2.10;0.63;;;;;;;;;;4987007;28;20030;-69
2023/10/30 00:05:01;;;;;;;1.08;0.63;;;;;;;;;;4986505;28;20106;-72
2023/10/30 00:07:27;;;;;;;1.95;0.65;;;;;;;;;;4986928;28;20105;-73
2023/10/30 00:09:53;;;;;;;1.80;0.60;;;;;;;;;;4986860;28;20442;-72
2023/10/30 00:12:18;;;;;;;1.63;0.70;;;;;;;;;;4968252;28;20073;-72
2023/10/30 00:14:43;;;;;;;5.93;0.70;;;;;;;;;;4988037;28;20014;-70
2023/10/30 00:17:08;;;;;;;1.45;0.73;;;;;;;;;;4988524;28;20397;-73
2023/10/30 00:19:34;;;;;;;3.13;0.88;;;;;;;;;;4990187;28;20023;-73
2023/10/30 00:21:59;;;;;;;2.95;0.90;;;;;;;;;;4992234;28;20022;-72
2023/10/30 00:24:25;;;;;;;0.80;0.35;;;;;;;;;;4973918;28;20109;-72
2023/10/30 00:26:50;;;;;;;2.40;0.90;;;;;;;;;;4991295;28;20102;-70
2023/10/30 00:29:15;;;;;;;2.42;1.00;;;;;;;;;;4991829;28;20089;-72
2023/10/30 00:31:40;;;;;;;7.15;1.38;;;;;;;;;;4992093;28;20363;-71
2023/10/30 00:34:09;;;;;;;5.28;1.38;;;;;;;;;;4992208;28;20497;-72
2023/10/30 00:36:35;;;;;;;5.43;1.00;;;;;;;;;;4989775;28;20010;-73
2023/10/30 00:39:00;;;;;;;2.50;0.90;;;;;;;;;;4989344;28;20018;-72
2023/10/30 00:41:25;;;;;;;2.90;0.80;;;;;;;;;;4984411;28;20050;-72
2023/10/30 00:43:51;;;;;;;2.22;0.80;;;;;;;;;;4990208;28;20023;-72
2023/10/30 00:46:17;;;;;;;3.67;0.82;;;;;;;;;;4989627;28;20015;-72
2023/10/30 00:48:42;;;;;;;4.50;0.73;;;;;;;;;;4991736;28;20592;-70
2023/10/30 00:51:07;;;;;;;0.65;0.50;;;;;;;;;;4991875;28;20111;-73
2023/10/30 00:53:32;;;;;;;2.05;0.70;;;;;;;;;;4991862;28;20473;-70
2023/10/30 00:55:57;;;;;;;1.63;0.60;;;;;;;;;;4973862;28;20394;-69
2023/10/30 00:58:23;;;;;;;0.50;0.50;;;;;;;;;;4991246;28;20026;-72
2023/10/30 01:00:48;;;;;;;1.98;0.80;;;;;;;;;;4978298;28;20026;-70
2023/10/30 01:03:15;;;;;;;1.58;0.57;;;;;;;;;;4991621;28;20110;-70
2023/10/30 01:05:40;;;;;;;3.22;0.93;;;;;;;;;;4990698;28;20021;-71
2023/10/30 01:08:08;;;;;;;1.10;0.60;;;;;;;;;;4990461;28;20030;-71
2023/10/30 01:10:34;;;;;;;2.05;0.75;;;;;;;;;;4988244;28;20011;-72
2023/10/30 01:12:59;;;;;;;1.70;0.80;;;;;;;;;;4989909;28;20101;-70
2023/10/30 01:15:24;;;;;;;1.65;0.88;;;;;;;;;;4989242;28;20102;-71
2023/10/30 01:17:50;;;;;;;3.20;0.73;;;;;;;;;;4990253;28;20020;-72
2023/10/30 01:20:15;;;;;;;10.23;0.80;;;;;;;;;;4988116;28;20106;-71
2023/10/30 01:22:40;;;;;;;2.03;0.70;;;;;;;;;;4990504;28;20023;-72
2023/10/30 01:25:05;;;;;;;3.50;0.80;;;;;;;;;;4974694;28;20513;-72
2023/10/30 01:27:31;;;;;;;5.03;0.82;;;;;;;;;;4989841;28;20544;-70
2023/10/30 01:29:56;;;;;;;1.67;0.60;;;;;;;;;;4990877;28;20450;-72
2023/10/30 01:32:21;;;;;;;0.93;0.50;;;;;;;;;;4990442;28;20018;-71
2023/10/30 01:34:46;;;;;;;5.45;0.90;;;;;;;;;;4990673;28;20077;-71
2023/10/30 01:37:12;;;;;;;1.40;0.63;;;;;;;;;;4989301;28;20026;-71
2023/10/30 01:39:37;;;;;;;0.98;0.55;;;;;;;;;;4990494;28;20085;-70
2023/10/30 01:42:02;;;;;;;3.55;0.60;;;;;;;;;;4989504;28;20022;-71
2023/10/30 01:44:28;;;;;;;3.58;0.63;;;;;;;;;;4989750;28;20022;-71
2023/10/30 01:46:53;;;;;;;2.20;0.80;;;;;;;;;;4989349;28;20022;-70
2023/10/30 01:49:18;;;;;;;1.85;0.70;;;;;;;;;;4990400;28;20022;-72
2023/10/30 01:51:43;;;;;;;3.40;0.63;;;;;;;;;;5017946;23;20091;-70
2023/10/30 01:54:09;;;;;;;1.77;0.65;;;;;;;;;;5010119;28;20045;-69
2023/10/30 01:56:34;;;;;;;5.40;0.95;;;;;;;;;;5007375;28;20014;-69
2023/10/30 01:59:00;;;;;;;6.70;1.08;;;;;;;;;;5007685;28;20026;-69
2023/10/30 02:01:25;;;;;;;5.97;0.70;;;;;;;;;;5017886;28;20028;-66
2023/10/30 02:03:52;;;;;;;5.25;1.00;;;;;;;;;;5027689;28;20035;-69
2023/10/30 02:06:17;;;;;;;1.95;0.85;;;;;;;;;;5026778;28;20112;-67
2023/10/30 02:08:42;;;;;;;1.38;0.73;;;;;;;;;;5027501;28;20037;-68
2023/10/30 02:11:08;;;;;;;2.25;0.80;;;;;;;;;;5024518;28;20021;-66
2023/10/30 02:13:33;;;;;;;2.33;0.50;;;;;;;;;;5026736;28;20837;-68
2023/10/30 02:15:58;;;;;;;3.72;0.77;;;;;;;;;;5008800;28;20022;-67
2023/10/30 02:18:23;;;;;;;5.45;0.80;;;;;;;;;;5027429;28;20087;-66
2023/10/30 02:20:49;;;;;;;1.65;0.55;;;;;;;;;;5009732;28;20028;-67
2023/10/30 02:23:14;;;;;;;2.35;0.70;;;;;;;;;;5026922;28;20412;-67
2023/10/30 02:25:39;;;;;;;2.92;1.15;;;;;;;;;;5026695;28;20014;-68
2023/10/30 02:28:04;;;;;;;2.67;0.73;;;;;;;;;;5026688;28;20086;-66
2023/10/30 02:30:30;;;;;;;2.25;0.70;;;;;;;;;;5027322;28;20363;-68
2023/10/30 02:32:55;;;;;;;2.17;0.68;;;;;;;;;;5027751;28;20025;-68
2023/10/30 02:35:21;;;;;;;4.50;0.95;;;;;;;;;;5008752;28;20025;-68
2023/10/30 02:37:46;;;;;;;4.28;0.80;;;;;;;;;;5027132;28;20131;-66
2023/10/30 02:40:12;;;;;;;5.85;0.95;;;;;;;;;;5027122;28;20063;-69
2023/10/30 02:42:37;;;;;;;4.80;0.93;;;;;;;;;;5025778;28;20021;-68
2023/10/30 02:45:03;;;;;;;3.90;0.88;;;;;;;;;;5026948;28;20045;-67
2023/10/30 02:47:29;;;;;;;3.95;0.93;;;;;;;;;;5026861;28;20039;-69
2023/10/30 02:49:54;;;;;;;2.47;0.80;;;;;;;;;;5027875;28;20020;-69
2023/10/30 02:52:20;;;;;;;5.45;1.05;;;;;;;;;;5026833;28;20021;-68
2023/10/30 02:54:45;;;;;;;3.25;0.70;;;;;;;;;;5027711;28;20013;-69
2023/10/30 02:57:10;;;;;;;1.58;0.73;;;;;;;;;;5007771;28;20107;-70
2023/10/30 02:59:36;;;;;;;5.00;0.98;;;;;;;;;;5027195;28;20247;-68
2023/10/30 03:02:02;;;;;;;4.30;0.98;;;;;;;;;;5026521;28;20461;-72
2023/10/30 03:04:28;;;;;;;2.13;0.80;;;;;;;;;;5001231;28;20563;-68
2023/10/30 03:06:53;;;;;;;3.13;0.88;;;;;;;;;;5025921;28;20108;-66
2023/10/30 03:09:18;;;;;;;3.95;0.63;;;;;;;;;;5027347;28;20024;-69
2023/10/30 03:11:43;;;;;;;3.30;0.80;;;;;;;;;;5022059;28;20036;-69
2023/10/30 03:14:09;;;;;;;3.47;0.82;;;;;;;;;;5026647;28;20088;-67
2023/10/30 03:16:34;;;;;;;4.30;1.05;;;;;;;;;;5025611;28;20019;-68
2023/10/30 03:18:59;;;;;;;4.78;0.77;;;;;;;;;;5023184;28;20018;-68
2023/10/30 03:21:25;;;;;;;3.20;0.50;;;;;;;;;;5026503;28;20052;-65
2023/10/30 03:23:50;;;;;;;3.33;0.85;;;;;;;;;;5026874;28;20041;-68
2023/10/30 03:26:16;;;;;;;1.95;0.75;;;;;;;;;;5007595;28;20112;-69
2023/10/30 03:28:42;;;;;;;5.28;0.68;;;;;;;;;;5026437;28;20022;-66
2023/10/30 03:31:07;;;;;;;2.47;0.93;;;;;;;;;;5008423;28;20021;-69
2023/10/30 03:33:33;;;;;;;7.95;1.52;;;;;;;;;;5027754;28;20564;-68
2023/10/30 03:35:58;;;;;;;6.20;0.90;;;;;;;;;;5025961;28;20014;-69
2023/10/30 03:38:23;;;;;;;2.65;0.98;;;;;;;;;;5025954;28;20029;-68
2023/10/30 03:40:48;;;;;;;8.88;0.80;;;;;;;;;;5008461;28;20163;-68
2023/10/30 03:43:16;;;;;;;4.45;0.98;;;;;;;;;;5025627;28;20091;-69
2023/10/30 03:45:41;;;;;;;6.28;1.52;;;;;;;;;;5026146;28;20021;-66
2023/10/30 03:48:06;;;;;;;6.30;1.02;;;;;;;;;;5026979;28;20033;-67
2023/10/30 03:50:31;;;;;;;1.63;0.68;;;;;;;;;;5027196;28;20508;-67
2023/10/30 03:52:57;;;;;;;3.72;0.70;;;;;;;;;;5027161;28;20024;-68
2023/10/30 03:55:22;;;;;;;2.60;0.73;;;;;;;;;;5028190;28;20025;-69
2023/10/30 03:57:47;;;;;;;7.68;1.13;;;;;;;;;;5029992;28;20077;-68
2023/10/30 04:00:12;;;;;;;3.20;0.82;;;;;;;;;;5030668;28;20025;-69
2023/10/30 04:02:38;;;;;;;1.50;0.57;;;;;;;;;;5029919;28;20018;-69
2023/10/30 04:05:04;;;;;;;9.75;1.00;;;;;;;;;;5011383;28;20160;-69
2023/10/30 04:07:30;;;;;;;5.10;0.93;;;;;;;;;;5029684;28;20021;-67
2023/10/30 04:09:55;;;;;;;2.83;0.90;;;;;;;;;;5012661;28;20036;-70
2023/10/30 04:12:20;;;;;;;7.93;1.10;;;;;;;;;;5024097;28;20131;-67
2023/10/30 04:14:46;;;;;;;4.43;1.13;;;;;;;;;;5029843;28;20006;-68
2023/10/30 04:17:11;;;;;;;4.32;0.93;;;;;;;;;;5029210;28;20032;-69
2023/10/30 04:19:38;;;;;;;5.70;0.85;;;;;;;;;;5026707;28;20555;-69
2023/10/30 04:22:03;;;;;;;2.50;0.75;;;;;;;;;;5030291;28;20010;-70
2023/10/30 04:24:28;;;;;;;2.55;1.20;;;;;;;;;;5030074;28;20362;-67
2023/10/30 04:26:54;;;;;;;2.10;0.82;;;;;;;;;;5029544;28;20037;-69
2023/10/30 04:29:19;;;;;;;5.05;0.88;;;;;;;;;;5025041;28;20044;-68
2023/10/30 04:31:44;;;;;;;4.50;0.90;;;;;;;;;;5029903;28;20017;-69
2023/10/30 04:34:09;;;;;;;3.63;0.82;;;;;;;;;;5029588;28;20044;-69
2023/10/30 04:36:35;;;;;;;6.45;1.00;;;;;;;;;;5029372;28;20013;-69
2023/10/30 04:39:00;;;;;;;4.30;0.90;;;;;;;;;;5029595;28;20053;-69
2023/10/30 04:41:25;;;;;;;2.33;0.70;;;;;;;;;;5029342;28;20053;-68
2023/10/30 04:43:50;;;;;;;5.43;0.88;;;;;;;;;;5029611;28;20120;-67
2023/10/30 04:46:17;;;;;;;3.63;1.02;;;;;;;;;;5027394;28;20616;-68
2023/10/30 04:48:42;;;;;;;4.15;0.90;;;;;;;;;;5029923;28;20469;-68
2023/10/30 04:51:08;;;;;;;4.45;0.90;;;;;;;;;;5029827;28;20472;-65
2023/10/30 04:53:33;;;;;;;4.88;1.08;;;;;;;;;;5029868;28;20021;-67
2023/10/30 04:56:02;;;;;;;4.82;0.73;;;;;;;;;;5028941;28;20021;-67
2023/10/30 04:58:27;;;;;;;8.23;1.10;;;;;;;;;;5028877;28;20096;-66
2023/10/30 05:00:52;;;;;;;7.50;0.98;;;;;;;;;;5011594;28;20250;-69
2023/10/30 05:03:17;;;;;;;4.10;1.00;;;;;;;;;;5029191;28;20499;-67
2023/10/30 05:05:43;;;;;;;5.20;1.27;;;;;;;;;;5028420;28;20021;-69
2023/10/30 05:08:08;;;;;;;9.20;1.17;;;;;;;;;;5028801;28;20040;-66
2023/10/30 05:10:33;;;;;;;2.72;0.98;;;;;;;;;;5026839;28;20063;-69
2023/10/30 05:12:58;;;;;;;5.28;1.10;;;;;;;;;;5023765;28;20017;-66
2023/10/30 05:15:24;;;;;;;8.45;1.40;;;;;;;;;;5028905;28;20088;-70
2023/10/30 05:17:49;;;;;;;5.32;0.80;;;;;;;;;;5029492;28;20013;-69
2023/10/30 05:20:15;;;;;;;4.53;0.90;;;;;;;;;;5007466;28;20459;-68
2023/10/30 05:22:41;;;;;;;8.77;1.27;;;;;;;;;;5021033;28;20036;-68
2023/10/30 05:25:06;;;;;;;5.03;1.20;;;;;;;;;;5028656;28;20416;-68
2023/10/30 05:27:32;;;;;;;6.50;1.92;;;;;;;;;;5028517;28;20479;-65
2023/10/30 05:29:57;;;;;;;4.28;1.30;;;;;;;;;;5029556;28;20337;-66
2023/10/30 05:32:23;;;;;;;4.28;0.75;;;;;;;;;;5028223;28;20397;-68
2023/10/30 05:34:48;;;;;;;5.75;1.05;;;;;;;;;;5028979;28;20079;-69
2023/10/30 05:37:14;;;;;;;7.68;1.10;;;;;;;;;;5010423;28;20095;-68
2023/10/30 05:39:39;;;;;;;7.80;1.00;;;;;;;;;;5029013;28;20503;-67
2023/10/30 05:42:05;;;;;;;7.78;1.50;;;;;;;;;;5028283;28;20009;-68
2023/10/30 05:44:31;;;;;;;6.75;1.35;;;;;;;;;;5028797;28;20424;-70
2023/10/30 05:46:56;;;;;;;4.47;1.05;;;;;;;;;;5010270;28;20072;-66
2023/10/30 05:49:22;;;;;;;12.75;1.30;;;;;;;;;;5029236;28;20029;-69
2023/10/30 05:51:47;;;;;;;3.50;0.88;;;;;;;;;;5034552;28;20037;-66
2023/10/30 05:54:12;;;;;;;4.05;1.00;;;;;;;;;;5043937;28;20029;-68
2023/10/30 05:56:37;;;;;;;4.72;1.05;;;;;;;;;;5045329;28;20100;-68
2023/10/30 05:59:03;;;;;;;5.00;1.23;;;;;;;;;;5042339;28;20022;-67
2023/10/30 06:01:28;;;;;;;2.63;0.80;;;;;;;;;;5024720;28;20022;-65
2023/10/30 06:03:53;;;;;;;4.00;1.00;;;;;;;;;;5026118;28;20041;-69
2023/10/30 06:06:18;;;;;;;4.80;1.10;;;;;;;;;;5020578;28;20029;-67
2023/10/30 06:08:44;;;;;;;11.10;1.05;;;;;;;;;;5027069;28;20018;-67
2023/10/30 06:11:10;;;;;;;4.35;1.25;;;;;;;;;;5020751;28;20508;-65
2023/10/30 06:13:35;;;;;;;2.28;0.70;;;;;;;;;;5019722;28;20093;-64
2023/10/30 06:16:00;;;;;;;5.28;0.93;;;;;;;;;;5008985;28;20501;-67
2023/10/30 06:18:26;;;;;;;2.58;1.02;;;;;;;;;;5025159;28;20465;-67
2023/10/30 06:20:51;;;;;;;6.60;0.90;;;;;;;;;;5026710;28;20025;-68
2023/10/30 06:23:17;;;;;;;6.18;1.17;;;;;;;;;;5027661;28;20087;-66
2023/10/30 06:25:44;;;;;;;4.68;0.93;;;;;;;;;;5027131;28;20009;-68
2023/10/30 06:28:10;;;;;;;3.65;0.82;;;;;;;;;;5026137;28;20109;-67
2023/10/30 06:30:35;;;;;;;1.33;0.70;;;;;;;;;;5027155;28;20017;-69
2023/10/30 06:33:00;;;;;;;9.60;0.98;;;;;;;;;;5027364;28;20079;-67
2023/10/30 06:35:26;;;;;;;6.93;1.83;;;;;;;;;;5026181;28;20101;-68
2023/10/30 06:37:51;;;;;;;10.35;1.35;;;;;;;;;;5025331;28;20090;-69
2023/10/30 06:40:16;;;;;;;6.60;1.20;;;;;;;;;;5026959;28;20022;-67
2023/10/30 06:42:42;;;;;;;3.85;1.10;;;;;;;;;;5025760;28;20025;-68
2023/10/30 06:45:08;;;;;;;7.00;1.30;;;;;;;;;;5024747;28;20022;-68
2023/10/30 06:47:33;;;;;;;3.42;1.20;;;;;;;;;;5026775;28;20115;-66
2023/10/30 06:49:58;;;;;;;4.13;1.10;;;;;;;;;;5026738;28;20511;-69
2023/10/30 06:52:24;;;;;;;3.97;1.10;;;;;;;;;;5026666;28;20029;-66
2023/10/30 06:54:49;;;;;;;8.18;1.52;;;;;;;;;;5026828;28;20089;-68
2023/10/30 06:57:14;;;;;;;4.18;1.30;;;;;;;;;;5025748;28;20064;-69
2023/10/30 06:59:39;;;;;;;6.35;1.52;;;;;;;;;;5026547;28;20504;-68
2023/10/30 07:02:05;;;;;;;6.82;1.55;;;;;;;;;;5008317;28;20017;-70
2023/10/30 07:04:30;;;;;;;4.97;1.40;;;;;;;;;;5008778;28;20025;-68
2023/10/30 07:06:55;;;;;;;5.35;1.08;;;;;;;;;;5025788;28;20108;-66
2023/10/30 07:09:21;;;;;;;3.65;1.15;;;;;;;;;;5026291;28;20109;-68
2023/10/30 07:11:46;;;;;;;6.10;1.58;;;;;;;;;;5019415;28;20068;-68
2023/10/30 07:14:11;;;;;;;6.30;1.83;;;;;;;;;;5028634;28;20053;-66
2023/10/30 07:16:36;;;;;;;5.95;1.20;;;;;;;;;;5025788;28;20393;-67
2023/10/30 07:19:02;;;;;;;4.28;0.90;;;;;;;;;;5019253;28;20041;-66
2023/10/30 07:21:28;;;;;;;4.00;1.05;;;;;;;;;;5023832;28;20089;-68
2023/10/30 07:23:53;;;;;;;11.23;1.83;;;;;;;;;;5026397;28;20033;-68
2023/10/30 07:26:21;;;;;;;6.35;1.52;;;;;;;;;;5025964;28;20783;-66
2023/10/30 07:28:48;;;;;;;4.85;0.98;;;;;;;;;;5020687;28;20033;-68
2023/10/30 07:31:13;;;;;;;1.85;0.90;;;;;;;;;;5029250;28;20032;-67
2023/10/30 07:33:38;;;;;;;13.52;1.65;;;;;;;;;;5028258;28;20010;-68
2023/10/30 07:36:03;;;;;;;3.70;1.20;;;;;;;;;;5026438;28;20021;-67
2023/10/30 07:38:29;;;;;;;4.47;1.45;;;;;;;;;;5026710;28;20549;-68
2023/10/30 07:40:54;;;;;;;4.47;1.10;;;;;;;;;;5018487;28;20029;-66
2023/10/30 07:43:21;;;;;;;2.63;0.98;;;;;;;;;;5023102;28;20047;-68
2023/10/30 07:45:46;;;;;;;5.43;1.08;;;;;;;;;;5029932;28;20452;-68
2023/10/30 07:48:11;;;;;;;4.70;1.95;;;;;;;;;;5029233;28;20037;-68
2023/10/30 07:50:37;;;;;;;15.88;1.58;;;;;;;;;;5027393;28;20033;-67
2023/10/30 07:53:02;;;;;;;7.50;1.60;;;;;;;;;;5032282;22;20057;-70
2023/10/30 07:55:28;;;;;;;3.70;1.50;;;;;;;;;;5011144;28;20049;-69
2023/10/30 07:57:53;;;;;;;4.10;1.23;;;;;;;;;;5013719;28;20030;-70
2023/10/30 08:00:18;;;;;;;8.50;1.10;;;;;;;;;;5011804;28;20026;-71
2023/10/30 08:02:46;;;;;;;1.98;0.73;;;;;;;;;;5025478;28;20097;-70
2023/10/30 08:05:15;;;;;;;8.93;1.52;;;;;;;;;;5027348;28;20544;-68
2023/10/30 08:07:40;;;;;;;5.50;1.10;;;;;;;;;;5026170;28;20095;-70
2023/10/30 08:10:06;;;;;;;3.60;1.25;;;;;;;;;;5008371;28;20935;-69
2023/10/30 08:12:31;;;;;;;6.88;1.60;;;;;;;;;;5030635;28;20028;-66
2023/10/30 08:14:58;;;;;;;7.10;1.90;;;;;;;;;;5031605;28;20445;-68
2023/10/30 08:17:24;;;;;;;7.32;1.52;;;;;;;;;;5029156;28;20048;-69
2023/10/30 08:19:49;;;;;;;4.95;1.77;;;;;;;;;;5030056;28;20049;-70
2023/10/30 08:22:14;;;;;;;5.65;1.70;;;;;;;;;;5031024;28;20022;-70
2023/10/30 08:24:40;;;;;;;4.38;1.20;;;;;;;;;;5031108;28;20481;-69
2023/10/30 08:27:06;;;;;;;5.00;1.35;;;;;;;;;;5029466;28;20025;-72
2023/10/30 08:29:31;;;;;;;5.00;1.30;;;;;;;;;;5026669;28;20033;-72
2023/10/30 08:31:56;;;;;;;5.25;2.05;;;;;;;;;;5028524;28;20017;-70
2023/10/30 08:34:22;;;;;;;5.90;2.05;;;;;;;;;;5011064;28;20072;-72
2023/10/30 08:36:47;;;;;;;10.27;2.38;;;;;;;;;;5022013;28;20021;-68
2023/10/30 08:39:13;;;;;;;8.27;1.75;;;;;;;;;;5029768;28;20028;-69
2023/10/30 08:41:38;;;;;;;6.05;1.70;;;;;;;;;;5023351;28;20033;-73
2023/10/30 08:44:04;;;;;;;7.30;1.95;;;;;;;;;;5025719;28;20043;-71
2023/10/30 08:46:30;;;;;;;4.47;1.17;;;;;;;;;;5024311;28;20099;-75
2023/10/30 08:48:57;;;;;;;4.70;1.38;;;;;;;;;;5027980;28;20025;-69
2023/10/30 08:51:22;;;;;;;4.55;0.90;;;;;;;;;;5028455;28;20424;-72
2023/10/30 08:53:49;;;;;;;2.80;1.10;;;;;;;;;;5028944;28;20481;-69
2023/10/30 08:56:14;;;;;;;3.92;0.70;;;;;;;;;;5025328;28;20097;-68
2023/10/30 08:58:39;;;;;;;5.63;0.93;;;;;;;;;;5028738;28;20101;-70
2023/10/30 09:01:04;;;;;;;5.57;1.60;;;;;;;;;;5023181;28;20045;-72
2023/10/30 09:03:30;;;;;;;3.60;0.93;;;;;;;;;;5024181;28;20044;-70
2023/10/30 09:05:55;;;;;;;3.30;1.00;;;;;;;;;;5027610;28;20064;-73
2023/10/30 09:08:20;;;;;;;4.97;1.40;;;;;;;;;;5025120;28;20036;-70
2023/10/30 09:10:45;;;;;;;3.42;1.00;;;;;;;;;;5024625;28;20026;-71
2023/10/30 09:13:11;;;;;;;9.80;1.20;;;;;;;;;;5027335;28;20025;-71
2023/10/30 09:15:36;;;;;;;12.48;1.63;;;;;;;;;;5029860;28;20018;-71
2023/10/30 09:18:01;;;;;;;4.30;1.17;;;;;;;;;;5004112;28;20445;-73
2023/10/30 09:20:27;;;;;;;5.10;1.15;;;;;;;;;;5024216;28;20022;-70
2023/10/30 09:22:52;;;;;;;10.55;1.58;;;;;;;;;;5030078;28;20568;-70
2023/10/30 09:25:18;;;;;;;4.50;1.10;;;;;;;;;;5029757;28;20083;-68
2023/10/30 09:27:44;;;;;;;6.80;1.30;;;;;;;;;;5026249;28;20030;-68
2023/10/30 09:30:09;;;;;;;6.13;1.25;;;;;;;;;;5030569;28;20022;-69
2023/10/30 09:32:34;;;;;;;5.22;1.30;;;;;;;;;;5029407;28;20017;-71
2023/10/30 09:35:00;;;;;;;5.43;1.70;;;;;;;;;;5023302;28;20025;-72
2023/10/30 09:37:25;;;;;;;6.05;1.60;;;;;;;;;;5028672;28;20026;-71
2023/10/30 09:39:51;;;;;;;5.15;1.55;;;;;;;;;;5030054;28;20021;-72
2023/10/30 09:42:16;;;;;;;6.10;1.45;;;;;;;;;;5026438;28;20445;-75
2023/10/30 09:44:42;;;;;;;6.38;1.50;;;;;;;;;;5028901;28;20093;-72
2023/10/30 09:47:07;;;;;;;6.70;2.63;;;;;;;;;;5029034;28;20026;-71
2023/10/30 09:49:32;;;;;;;4.85;1.67;;;;;;;;;;5030400;28;20058;-74
2023/10/30 09:51:59;;;;;;;4.95;1.52;;;;;;;;;;5028927;28;20029;-70
2023/10/30 09:54:24;;;;;;;8.05;2.05;;;;;;;;;;5029853;28;20022;-71
2023/10/30 09:56:50;;;;;;;9.45;2.13;;;;;;;;;;5029246;28;20147;-72
2023/10/30 09:59:16;;;;;;;4.57;1.63;;;;;;;;;;5021347;28;20391;-71
2023/10/30 10:01:42;;;;;;;7.22;2.13;;;;;;;;;;5028638;28;20035;-70
2023/10/30 10:04:07;;;;;;;10.13;1.88;;;;;;;;;;5029289;28;20096;-71
2023/10/30 10:06:32;;;;;;;6.90;1.05;;;;;;;;;;5029589;28;20065;-71
2023/10/30 10:08:57;;;;;;;6.10;1.45;;;;;;;;;;5029535;28;20014;-71
2023/10/30 10:11:23;;;;;;;10.82;1.30;;;;;;;;;;5029183;28;20026;-72
2023/10/30 10:13:49;;;;;;;2.35;0.80;;;;;;;;;;5028928;28;20020;-70
2023/10/30 10:16:15;;;;;;;4.80;1.17;;;;;;;;;;5027947;28;20032;-72
2023/10/30 10:18:41;;;;;;;3.05;1.25;;;;;;;;;;5029945;28;20017;-69
2023/10/30 10:21:11;;;;;;;6.88;1.10;;;;;;;;;;5029468;28;20028;-71
2023/10/30 10:23:37;;;;;;;3.70;1.25;;;;;;;;;;5029582;28;20029;-71
2023/10/30 10:26:04;;;;;;;7.43;1.60;;;;;;;;;;5010747;28;20059;-72
2023/10/30 10:28:30;;;;;;;3.67;1.10;;;;;;;;;;5011155;28;20151;-74
2023/10/30 10:30:55;;;;;;;4.47;1.30;;;;;;;;;;5028874;28;20505;-72
2023/10/30 10:33:24;;;;;;;7.13;0.95;;;;;;;;;;5029029;28;20025;-72
2023/10/30 10:35:49;;;;;;;;;;;;;;;;;;5028914;28;20021;-71
2023/10/30 10:38:16;;;;;;;3.45;1.23;;;;;;;;;;5030142;28;19905;-74
2023/10/30 10:40:43;;;;;;;5.65;1.30;;;;;;;;;;5029338;28;20025;-71
2023/10/30 10:43:09;;;;;;;9.82;1.35;;;;;;;;;;5021447;28;20053;-71
2023/10/30 10:45:35;;;;;;;4.30;1.10;;;;;;;;;;5027616;28;20511;-73
2023/10/30 10:48:00;;;;;;;4.38;1.05;;;;;;;;;;5028807;28;20057;-72
2023/10/30 10:50:25;;;;;;;8.20;1.33;;;;;;;;;;5010853;28;20052;-71
2023/10/30 10:52:53;;;;;;;5.47;1.65;;;;;;;;;;5028928;28;20333;-71
2023/10/30 10:55:22;;;;;;;6.60;1.70;;;;;;;;;;5029276;28;20033;-71
2023/10/30 10:57:57;;;;;;;6.75;2.30;;;;;;;;;;5027699;28;20151;-72
2023/10/30 11:00:24;;;;;;;5.65;2.03;;;;;;;;;;5028513;28;20026;-71
2023/10/30 11:02:51;;;;;;;4.05;1.45;;;;;;;;;;5027898;28;20091;-70
2023/10/30 11:05:16;;;;;;;3.80;1.45;;;;;;;;;;5028460;28;20032;-72
2023/10/30 11:07:52;;;;;;;7.20;1.45;;;;;;;;;;5028467;28;20021;-71
2023/10/30 11:10:20;;;;;;;4.40;1.60;;;;;;;;;;5029162;28;20172;-73
2023/10/30 11:12:48;;;;;;;11.30;2.00;;;;;;;;;;5027439;28;20093;-70
2023/10/30 11:15:30;;;;;;;5.43;1.70;;;;;;;;;;5027627;28;20190;-71
2023/10/30 11:18:14;;;;;;;3.60;1.55;;;;;;;;;;5028057;28;20495;-72
2023/10/30 11:20:40;;;;;;;5.32;1.95;;;;;;;;;;5008692;28;20028;-70
2023/10/30 11:23:06;;;;;;;5.13;1.67;;;;;;;;;;5028100;28;20029;-70
2023/10/30 11:25:44;;;;;;;4.00;1.60;;;;;;;;;;5028210;28;20028;-73
2023/10/30 11:28:09;;;;;;;7.53;1.77;;;;;;;;;;5027177;28;20051;-72
2023/10/30 11:30:41;;;;;;;4.70;1.45;;;;;;;;;;5028760;28;20097;-73
2023/10/30 11:33:16;;;;;;;5.03;1.70;;;;;;;;;;5009691;28;20496;-73
2023/10/30 11:35:44;;;;;;;4.60;1.95;;;;;;;;;;5029525;28;20092;-73
2023/10/30 11:38:10;;;;;;;4.57;1.70;;;;;;;;;;5028733;28;20036;-72
2023/10/30 11:40:35;;;;;;;7.60;2.30;;;;;;;;;;5029015;28;20022;-73
2023/10/30 11:43:05;;;;;;;7.50;1.50;;;;;;;;;;5027584;28;20132;-70
2023/10/30 11:45:32;;;;;;;9.57;1.40;;;;;;;;;;5010204;28;20021;-73
2023/10/30 11:48:05;;;;;;;4.88;1.50;;;;;;;;;;5027852;28;20035;-72
2023/10/30 11:50:38;;;;;;;5.15;1.85;;;;;;;;;;5028354;28;20408;-74
2023/10/30 11:53:08;;;;;;;5.28;1.67;;;;;;;;;;5028248;28;20079;-73
2023/10/30 11:55:35;;;;;;;4.50;1.58;;;;;;;;;;5004080;28;20474;-73
2023/10/30 11:58:00;;;;;;;5.20;1.92;;;;;;;;;;5023275;28;20101;-74
2023/10/30 12:00:25;;;;;;;6.57;2.05;;;;;;;;;;5028077;28;20112;-74
2023/10/30 12:02:51;;;;;;;5.82;1.90;;;;;;;;;;5026617;28;20096;-72
2023/10/30 12:05:16;;;;;;;6.38;1.90;;;;;;;;;;5026987;28;20087;-72
2023/10/30 12:07:42;;;;;;;4.28;1.63;;;;;;;;;;5028344;28;20112;-70
2023/10/30 12:10:08;;;;;;;7.22;1.90;;;;;;;;;;5028150;28;20048;-71
2023/10/30 12:12:33;;;;;;;4.88;1.85;;;;;;;;;;5024687;28;20535;-73
2023/10/30 12:15:00;;;;;;;7.25;1.70;;;;;;;;;;5028656;28;20017;-72
2023/10/30 12:17:28;;;;;;;8.23;2.20;;;;;;;;;;5031177;28;20654;-71
2023/10/30 12:19:53;;;;;;;7.10;2.60;;;;;;;;;;5028367;28;20029;-73
2023/10/30 12:22:19;;;;;;;5.32;2.28;;;;;;;;;;5032561;28;20025;-71
2023/10/30 12:24:44;;;;;;;8.23;2.35;;;;;;;;;;5031976;28;20028;-72
2023/10/30 12:27:17;;;;;;;8.32;3.03;;;;;;;;;;5013329;28;20028;-72
2023/10/30 12:29:43;;;;;;;7.35;2.20;;;;;;;;;;5031953;28;20037;-68
2023/10/30 12:32:09;;;;;;;9.20;2.28;;;;;;;;;;5030997;28;20017;-73
2023/10/30 12:34:35;;;;;;;7.05;2.20;;;;;;;;;;5032450;28;20519;-72
2023/10/30 12:37:15;;;;;;;7.65;2.22;;;;;;;;;;5031493;28;20013;-73
2023/10/30 12:39:40;;;;;;;8.07;2.28;;;;;;;;;;5031530;28;20028;-73
2023/10/30 12:42:06;;;;;;;9.35;2.60;;;;;;;;;;5030833;28;20025;-73
2023/10/30 12:44:31;;;;;;;6.03;2.25;;;;;;;;;;5025100;28;20024;-74
2023/10/30 12:46:56;;;;;;;7.03;2.60;;;;;;;;;;5030756;28;20084;-73
2023/10/30 12:49:22;;;;;;;7.10;2.97;;;;;;;;;;5031683;28;20017;-72
2023/10/30 12:51:47;;;;;;;12.55;4.38;;;;;;;;;;5030378;28;20018;-70
2023/10/30 12:54:12;;;;;;;9.45;3.13;;;;;;;;;;5031223;28;20026;-72
2023/10/30 12:56:37;;;;;;;9.50;3.08;;;;;;;;;;5022698;28;20060;-72
2023/10/30 12:59:03;;;;;;;11.13;3.25;;;;;;;;;;5030423;28;20016;-71
2023/10/30 13:01:29;;;;;;;7.35;3.30;;;;;;;;;;5030191;28;20017;-71
2023/10/30 13:03:54;;;;;;;12.23;3.38;;;;;;;;;;5030866;28;20136;-71
2023/10/30 13:06:20;;;;;;;13.05;3.25;;;;;;;;;;5029904;28;20582;-71
2023/10/30 13:08:45;;;;;;;9.40;2.75;;;;;;;;;;5030570;28;20105;-73
2023/10/30 13:11:11;;;;;;;6.60;2.35;;;;;;;;;;5026536;28;20018;-71
2023/10/30 13:13:36;;;;;;;5.60;2.00;;;;;;;;;;5030294;28;20020;-71
2023/10/30 13:16:02;;;;;;;8.93;2.50;;;;;;;;;;5011813;28;20022;-72
2023/10/30 13:18:27;;;;;;;7.63;2.58;;;;;;;;;;5030593;28;20025;-68
2023/10/30 13:20:52;;;;;;;11.00;2.42;;;;;;;;;;5030397;28;20021;-71
2023/10/30 13:23:21;;;;;;;8.77;2.72;;;;;;;;;;5021823;28;20026;-73
2023/10/30 13:25:46;;;;;;;;;;;;;;;;;;5032200;28;20025;-71
2023/10/30 13:28:13;;;;;;;10.82;2.47;;;;;;;;;;5025271;28;19910;-73
2023/10/30 13:30:39;;;;;;;12.38;2.72;;;;;;;;;;5030898;28;20258;-72
2023/10/30 13:33:04;;;;;;;8.70;2.35;;;;;;;;;;5029470;28;20013;-72
2023/10/30 13:35:29;;;;;;;7.20;2.08;;;;;;;;;;5030328;28;20505;-73
2023/10/30 13:37:54;;;;;;;6.93;2.22;;;;;;;;;;5030119;28;20009;-72
2023/10/30 13:40:20;;;;;;;6.30;2.05;;;;;;;;;;5029827;28;20116;-71
2023/10/30 13:42:45;;;;;;;9.07;2.38;;;;;;;;;;5024034;28;20046;-73
2023/10/30 13:45:10;;;;;;;8.48;2.17;;;;;;;;;;5028110;28;20048;-75
2023/10/30 13:47:35;;;;;;;6.93;2.47;;;;;;;;;;5029449;28;20199;-71
2023/10/30 13:50:00;;;;;;;7.20;2.30;;;;;;;;;;5024983;28;20044;-72
2023/10/30 13:52:26;;;;;;;12.43;3.05;;;;;;;;;;5032612;23;20465;-69
2023/10/30 13:54:52;;;;;;;15.02;2.63;;;;;;;;;;5008918;28;20464;-68
2023/10/30 13:57:21;;;;;;;6.43;2.10;;;;;;;;;;4986872;28;20025;-69
2023/10/30 13:59:46;;;;;;;12.57;2.90;;;;;;;;;;4991792;28;20029;-69
2023/10/30 14:02:12;;;;;;;10.35;2.63;;;;;;;;;;5014907;28;20025;-69
2023/10/30 14:04:37;;;;;;;6.30;2.20;;;;;;;;;;5026838;28;20017;-73
2023/10/30 14:07:03;;;;;;;5.50;1.90;;;;;;;;;;5013406;28;20074;-70
2023/10/30 14:09:28;;;;;;;11.38;2.28;;;;;;;;;;5007037;28;20080;-71
2023/10/30 14:11:53;;;;;;;7.88;1.70;;;;;;;;;;5022506;28;20025;-68
2023/10/30 14:14:19;;;;;;;5.70;1.90;;;;;;;;;;5013745;28;20021;-68
2023/10/30 14:16:44;;;;;;;4.57;1.83;;;;;;;;;;5027235;28;20028;-66
2023/10/30 14:19:09;;;;;;;7.90;1.63;;;;;;;;;;5003884;28;20017;-70
2023/10/30 14:21:35;;;;;;;6.97;1.70;;;;;;;;;;5005718;28;20536;-69
2023/10/30 14:24:03;;;;;;;8.88;1.65;;;;;;;;;;5017257;28;20025;-68
2023/10/30 14:26:29;;;;;;;;;;;;;;;;;;5027098;28;20021;-70
2023/10/30 14:28:54;;;;;;;3.20;1.42;;;;;;;;;;5002634;28;19913;-69
2023/10/30 14:31:19;;;;;;;27.00;2.55;;;;;;;;;;5026477;28;20021;-69
2023/10/30 14:33:45;;;;;;;7.07;1.85;;;;;;;;;;5026241;28;20432;-70